sensor_id;sensor_type;location;lat;lon;timestamp;temperature;humidity
9564;DHT22;4820;50.870;4.702;2024-01-10T00:01:59;-2.80;99.90
9564;DHT22;4820;50.870;4.702;2024-01-10T00:04:25;-2.80;99.90
9564;DHT22;4820;50.870;4.702;2024-01-10T00:06:51;-2.80;99.90
9564;DHT22;4820;50.870;4.702;2024-01-10T00:09:17;-2.80;99.90
9564;DHT22;4820;50.870;4.702;2024-01-10T00:11:43;-2.90;99.90
9564;DHT22;4820;50.870;4.702;2024-01-10T00:14:09;-2.90;99.90
9564;DHT22;4820;50.870;4.702;2024-01-10T00:16:35;-2.90;99.90
9564;DHT22;4820;50.870;4.702;2024-01-10T00:19:01;-2.90;99.90
9564;DHT22;4820;50.870;4.702;2024-01-10T00:21:26;-2.90;99.90
9564;DHT22;4820;50.870;4.702;2024-01-10T00:23:52;-2.90;99.90
9564;DHT22;4820;50.870;4.702;2024-01-10T00:26:18;-2.90;99.90
9564;DHT22;4820;50.870;4.702;2024-01-10T00:28:44;-2.90;99.90
9564;DHT22;4820;50.870;4.702;2024-01-10T00:31:14;-3.00;99.90
9564;DHT22;4820;50.870;4.702;2024-01-10T00:33:40;-3.00;99.90
9564;DHT22;4820;50.870;4.702;2024-01-10T00:36:06;-3.00;99.90
9564;DHT22;4820;50.870;4.702;2024-01-10T00:38:32;-3.00;99.90
9564;DHT22;4820;50.870;4.702;2024-01-10T00:40:58;-3.00;99.90
9564;DHT22;4820;50.870;4.702;2024-01-10T00:43:24;-3.10;99.90
9564;DHT22;4820;50.870;4.702;2024-01-10T00:45:50;-2.90;99.90
9564;DHT22;4820;50.870;4.702;2024-01-10T00:48:16;-3.10;99.90
9564;DHT22;4820;50.870;4.702;2024-01-10T00:50:43;-3.10;99.90
9564;DHT22;4820;50.870;4.702;2024-01-10T00:53:10;-3.20;99.90
9564;DHT22;4820;50.870;4.702;2024-01-10T00:55:36;-3.10;99.90
9564;DHT22;4820;50.870;4.702;2024-01-10T00:58:01;-3.20;99.90
9564;DHT22;4820;50.870;4.702;2024-01-10T01:00:27;-3.20;99.90
9564;DHT22;4820;50.870;4.702;2024-01-10T01:02:53;-3.20;99.90
9564;DHT22;4820;50.870;4.702;2024-01-10T01:05:19;-3.30;99.90
9564;DHT22;4820;50.870;4.702;2024-01-10T01:07:45;-3.20;99.90
9564;DHT22;4820;50.870;4.702;2024-01-10T01:10:10;-3.20;99.90
9564;DHT22;4820;50.870;4.702;2024-01-10T01:12:36;-3.20;99.90
9564;DHT22;4820;50.870;4.702;2024-01-10T01:15:03;-3.20;99.90
9564;DHT22;4820;50.870;4.702;2024-01-10T01:17:29;-3.30;99.90
9564;DHT22;4820;50.870;4.702;2024-01-10T01:19:54;-3.30;99.90
9564;DHT22;4820;50.870;4.702;2024-01-10T01:22:20;-3.30;99.90
9564;DHT22;4820;50.870;4.702;2024-01-10T01:24:46;-3.30;99.90
9564;DHT22;4820;50.870;4.702;2024-01-10T01:27:13;-3.30;99.90
9564;DHT22;4820;50.870;4.702;2024-01-10T01:29:38;-3.30;99.90
9564;DHT22;4820;50.870;4.702;2024-01-10T01:32:04;-3.30;99.90
9564;DHT22;4820;50.870;4.702;2024-01-10T01:34:30;-3.30;99.90
9564;DHT22;4820;50.870;4.702;2024-01-10T01:36:56;-3.30;99.90
9564;DHT22;4820;50.870;4.702;2024-01-10T01:39:22;-3.40;99.90
9564;DHT22;4820;50.870;4.702;2024-01-10T01:41:47;-3.40;99.90
9564;DHT22;4820;50.870;4.702;2024-01-10T01:44:13;-3.40;99.90
9564;DHT22;4820;50.870;4.702;2024-01-10T01:46:39;-3.40;99.90
9564;DHT22;4820;50.870;4.702;2024-01-10T01:49:10;-3.40;99.90
9564;DHT22;4820;50.870;4.702;2024-01-10T01:51:36;-3.40;99.90
9564;DHT22;4820;50.870;4.702;2024-01-10T01:54:06;-3.50;99.90
9564;DHT22;4820;50.870;4.702;2024-01-10T01:56:33;-3.50;99.90
9564;DHT22;4820;50.870;4.702;2024-01-10T01:58:59;-3.50;99.90
9564;DHT22;4820;50.870;4.702;2024-01-10T02:01:25;-3.50;99.90
9564;DHT22;4820;50.870;4.702;2024-01-10T02:03:51;-3.50;99.90
9564;DHT22;4820;50.870;4.702;2024-01-10T02:06:16;-3.40;99.90
9564;DHT22;4820;50.870;4.702;2024-01-10T02:08:42;-3.60;99.90
9564;DHT22;4820;50.870;4.702;2024-01-10T02:11:08;-3.60;99.90
9564;DHT22;4820;50.870;4.702;2024-01-10T02:13:34;-3.60;99.90
9564;DHT22;4820;50.870;4.702;2024-01-10T02:16:01;-3.60;99.90
9564;DHT22;4820;50.870;4.702;2024-01-10T02:18:28;-3.50;99.90
9564;DHT22;4820;50.870;4.702;2024-01-10T02:20:54;-3.50;99.90
9564;DHT22;4820;50.870;4.702;2024-01-10T02:23:20;-3.50;99.90
9564;DHT22;4820;50.870;4.702;2024-01-10T02:25:46;-3.50;99.90
9564;DHT22;4820;50.870;4.702;2024-01-10T02:28:11;-3.50;99.90
9564;DHT22;4820;50.870;4.702;2024-01-10T02:30:37;-3.50;99.90
9564;DHT22;4820;50.870;4.702;2024-01-10T02:33:03;-3.60;99.90
9564;DHT22;4820;50.870;4.702;2024-01-10T02:35:29;-3.60;99.90
9564;DHT22;4820;50.870;4.702;2024-01-10T02:37:58;-3.60;99.90
9564;DHT22;4820;50.870;4.702;2024-01-10T02:40:24;-3.60;99.90
9564;DHT22;4820;50.870;4.702;2024-01-10T02:42:50;-3.60;99.90
9564;DHT22;4820;50.870;4.702;2024-01-10T02:45:19;-3.60;99.90
9564;DHT22;4820;50.870;4.702;2024-01-10T02:47:45;-3.60;99.90
9564;DHT22;4820;50.870;4.702;2024-01-10T02:50:11;-3.60;99.90
9564;DHT22;4820;50.870;4.702;2024-01-10T02:52:37;-3.60;99.90
9564;DHT22;4820;50.870;4.702;2024-01-10T02:55:02;-3.60;99.90
9564;DHT22;4820;50.870;4.702;2024-01-10T02:57:28;-3.60;99.90
9564;DHT22;4820;50.870;4.702;2024-01-10T02:59:55;-3.60;99.90
9564;DHT22;4820;50.870;4.702;2024-01-10T03:02:20;-3.60;99.90
9564;DHT22;4820;50.870;4.702;2024-01-10T03:04:48;-3.60;99.90
9564;DHT22;4820;50.870;4.702;2024-01-10T03:07:14;-3.60;99.90
9564;DHT22;4820;50.870;4.702;2024-01-10T03:09:39;-3.50;99.90
9564;DHT22;4820;50.870;4.702;2024-01-10T03:12:05;-3.60;99.90
9564;DHT22;4820;50.870;4.702;2024-01-10T03:14:33;-3.60;99.90
9564;DHT22;4820;50.870;4.702;2024-01-10T03:16:59;-3.60;99.90
9564;DHT22;4820;50.870;4.702;2024-01-10T03:19:25;-3.60;99.90
9564;DHT22;4820;50.870;4.702;2024-01-10T03:21:51;-3.60;99.90
9564;DHT22;4820;50.870;4.702;2024-01-10T03:24:17;-3.60;99.90
9564;DHT22;4820;50.870;4.702;2024-01-10T03:26:43;-3.60;99.90
9564;DHT22;4820;50.870;4.702;2024-01-10T03:29:09;-3.60;99.90
9564;DHT22;4820;50.870;4.702;2024-01-10T03:31:34;-3.40;99.90
9564;DHT22;4820;50.870;4.702;2024-01-10T03:34:00;-3.60;99.90
9564;DHT22;4820;50.870;4.702;2024-01-10T03:36:26;-3.50;99.90
9564;DHT22;4820;50.870;4.702;2024-01-10T03:38:51;-3.50;99.90
9564;DHT22;4820;50.870;4.702;2024-01-10T03:41:18;-3.50;99.90
9564;DHT22;4820;50.870;4.702;2024-01-10T03:43:44;-3.50;99.90
9564;DHT22;4820;50.870;4.702;2024-01-10T03:46:11;-3.60;99.90
9564;DHT22;4820;50.870;4.702;2024-01-10T03:48:37;-3.50;99.90
9564;DHT22;4820;50.870;4.702;2024-01-10T03:51:06;-3.60;99.90
9564;DHT22;4820;50.870;4.702;2024-01-10T03:53:31;-3.60;99.90
9564;DHT22;4820;50.870;4.702;2024-01-10T03:55:57;-3.60;99.90
9564;DHT22;4820;50.870;4.702;2024-01-10T03:58:23;-3.60;99.90
9564;DHT22;4820;50.870;4.702;2024-01-10T04:00:49;-3.70;99.90
9564;DHT22;4820;50.870;4.702;2024-01-10T04:03:15;-3.70;99.90
9564;DHT22;4820;50.870;4.702;2024-01-10T04:05:42;-3.70;99.90
9564;DHT22;4820;50.870;4.702;2024-01-10T04:08:07;-3.70;99.90
9564;DHT22;4820;50.870;4.702;2024-01-10T04:10:33;-3.70;99.90
9564;DHT22;4820;50.870;4.702;2024-01-10T04:12:59;-3.70;99.90
9564;DHT22;4820;50.870;4.702;2024-01-10T04:15:25;-3.80;99.90
9564;DHT22;4820;50.870;4.702;2024-01-10T04:17:50;-3.70;99.90
9564;DHT22;4820;50.870;4.702;2024-01-10T04:20:16;-3.70;99.90
9564;DHT22;4820;50.870;4.702;2024-01-10T04:22:42;-3.70;99.90
9564;DHT22;4820;50.870;4.702;2024-01-10T04:25:08;-3.70;99.90
9564;DHT22;4820;50.870;4.702;2024-01-10T04:27:34;-3.70;99.90
9564;DHT22;4820;50.870;4.702;2024-01-10T04:29:59;-3.80;99.90
9564;DHT22;4820;50.870;4.702;2024-01-10T04:32:25;-3.70;99.90
9564;DHT22;4820;50.870;4.702;2024-01-10T04:34:51;-3.80;99.90
9564;DHT22;4820;50.870;4.702;2024-01-10T04:37:17;-3.80;99.90
9564;DHT22;4820;50.870;4.702;2024-01-10T04:39:43;-3.80;99.90
9564;DHT22;4820;50.870;4.702;2024-01-10T04:42:11;-3.80;99.90
9564;DHT22;4820;50.870;4.702;2024-01-10T04:44:37;-3.80;99.90
9564;DHT22;4820;50.870;4.702;2024-01-10T04:47:03;-3.80;99.90
9564;DHT22;4820;50.870;4.702;2024-01-10T04:49:29;-3.90;99.90
9564;DHT22;4820;50.870;4.702;2024-01-10T04:51:55;-4.00;99.90
9564;DHT22;4820;50.870;4.702;2024-01-10T04:54:21;-4.00;99.90
9564;DHT22;4820;50.870;4.702;2024-01-10T04:56:46;-4.10;99.90
9564;DHT22;4820;50.870;4.702;2024-01-10T04:59:12;-4.10;99.90
9564;DHT22;4820;50.870;4.702;2024-01-10T05:01:38;-4.20;99.90
9564;DHT22;4820;50.870;4.702;2024-01-10T05:04:04;-4.20;99.90
9564;DHT22;4820;50.870;4.702;2024-01-10T05:06:30;-4.20;99.90
9564;DHT22;4820;50.870;4.702;2024-01-10T05:08:56;-4.20;99.90
9564;DHT22;4820;50.870;4.702;2024-01-10T05:11:24;-4.20;99.90
9564;DHT22;4820;50.870;4.702;2024-01-10T05:13:53;-4.10;99.90
9564;DHT22;4820;50.870;4.702;2024-01-10T05:16:19;-4.10;99.90
9564;DHT22;4820;50.870;4.702;2024-01-10T05:18:45;-4.10;99.90
9564;DHT22;4820;50.870;4.702;2024-01-10T05:21:10;-4.10;99.90
9564;DHT22;4820;50.870;4.702;2024-01-10T05:23:36;-4.10;99.90
9564;DHT22;4820;50.870;4.702;2024-01-10T05:26:04;-4.00;99.90
9564;DHT22;4820;50.870;4.702;2024-01-10T05:28:30;-4.00;99.90
9564;DHT22;4820;50.870;4.702;2024-01-10T05:30:56;-4.00;99.90
9564;DHT22;4820;50.870;4.702;2024-01-10T05:33:22;-4.00;99.90
9564;DHT22;4820;50.870;4.702;2024-01-10T05:35:48;-4.00;99.90
9564;DHT22;4820;50.870;4.702;2024-01-10T05:38:14;-4.00;99.90
9564;DHT22;4820;50.870;4.702;2024-01-10T05:40:39;-4.00;99.90
9564;DHT22;4820;50.870;4.702;2024-01-10T05:43:06;-3.90;99.90
9564;DHT22;4820;50.870;4.702;2024-01-10T05:45:32;-3.90;99.90
9564;DHT22;4820;50.870;4.702;2024-01-10T05:47:58;-3.90;99.90
9564;DHT22;4820;50.870;4.702;2024-01-10T05:50:24;-3.90;99.90
9564;DHT22;4820;50.870;4.702;2024-01-10T05:52:50;-3.90;99.90
9564;DHT22;4820;50.870;4.702;2024-01-10T05:55:16;-3.90;99.90
9564;DHT22;4820;50.870;4.702;2024-01-10T05:57:41;-3.90;99.90
9564;DHT22;4820;50.870;4.702;2024-01-10T06:00:08;-3.90;99.90
9564;DHT22;4820;50.870;4.702;2024-01-10T06:02:37;-3.90;99.90
9564;DHT22;4820;50.870;4.702;2024-01-10T06:05:11;-3.90;99.90
9564;DHT22;4820;50.870;4.702;2024-01-10T06:07:38;-3.90;99.90
9564;DHT22;4820;50.870;4.702;2024-01-10T06:10:05;-4.00;99.90
9564;DHT22;4820;50.870;4.702;2024-01-10T06:12:31;-3.90;99.90
9564;DHT22;4820;50.870;4.702;2024-01-10T06:14:56;-4.00;99.90
9564;DHT22;4820;50.870;4.702;2024-01-10T06:17:23;-4.00;99.90
9564;DHT22;4820;50.870;4.702;2024-01-10T06:19:49;-4.00;99.90
9564;DHT22;4820;50.870;4.702;2024-01-10T06:22:16;-3.90;99.90
9564;DHT22;4820;50.870;4.702;2024-01-10T06:24:42;-3.90;99.90
9564;DHT22;4820;50.870;4.702;2024-01-10T06:27:08;-3.90;99.90
9564;DHT22;4820;50.870;4.702;2024-01-10T06:29:35;-3.90;99.90
9564;DHT22;4820;50.870;4.702;2024-01-10T06:32:05;-3.90;99.90
9564;DHT22;4820;50.870;4.702;2024-01-10T06:34:32;-3.90;99.90
9564;DHT22;4820;50.870;4.702;2024-01-10T06:36:58;-3.90;99.90
9564;DHT22;4820;50.870;4.702;2024-01-10T06:39:24;-3.90;99.90
9564;DHT22;4820;50.870;4.702;2024-01-10T06:41:50;-3.80;99.90
9564;DHT22;4820;50.870;4.702;2024-01-10T06:44:16;-3.90;99.90
9564;DHT22;4820;50.870;4.702;2024-01-10T06:46:45;-3.90;99.90
9564;DHT22;4820;50.870;4.702;2024-01-10T06:49:11;-3.90;99.90
9564;DHT22;4820;50.870;4.702;2024-01-10T06:51:37;-3.90;99.90
9564;DHT22;4820;50.870;4.702;2024-01-10T06:54:04;-3.90;99.90
9564;DHT22;4820;50.870;4.702;2024-01-10T06:56:31;-3.90;99.90
9564;DHT22;4820;50.870;4.702;2024-01-10T06:59:00;-3.80;99.90
9564;DHT22;4820;50.870;4.702;2024-01-10T07:01:26;-3.80;99.90
9564;DHT22;4820;50.870;4.702;2024-01-10T07:03:53;-3.80;99.90
9564;DHT22;4820;50.870;4.702;2024-01-10T07:06:22;-3.80;99.90
9564;DHT22;4820;50.870;4.702;2024-01-10T07:08:50;-3.80;99.90
9564;DHT22;4820;50.870;4.702;2024-01-10T07:11:17;-3.80;99.90
9564;DHT22;4820;50.870;4.702;2024-01-10T07:13:43;-3.80;99.90
9564;DHT22;4820;50.870;4.702;2024-01-10T07:16:09;-3.80;99.90
9564;DHT22;4820;50.870;4.702;2024-01-10T07:18:35;-3.80;99.90
9564;DHT22;4820;50.870;4.702;2024-01-10T07:21:01;-3.70;99.90
9564;DHT22;4820;50.870;4.702;2024-01-10T07:23:27;-3.70;99.90
9564;DHT22;4820;50.870;4.702;2024-01-10T07:25:52;-3.80;99.90
9564;DHT22;4820;50.870;4.702;2024-01-10T07:28:19;-3.80;99.90
9564;DHT22;4820;50.870;4.702;2024-01-10T07:30:45;-3.80;99.90
9564;DHT22;4820;50.870;4.702;2024-01-10T07:33:11;-3.80;99.90
9564;DHT22;4820;50.870;4.702;2024-01-10T07:35:36;-3.80;99.90
9564;DHT22;4820;50.870;4.702;2024-01-10T07:38:04;-3.80;99.90
9564;DHT22;4820;50.870;4.702;2024-01-10T07:40:29;-3.90;99.90
9564;DHT22;4820;50.870;4.702;2024-01-10T07:42:56;-3.90;99.90
9564;DHT22;4820;50.870;4.702;2024-01-10T07:45:22;-3.90;99.90
9564;DHT22;4820;50.870;4.702;2024-01-10T07:47:48;-3.90;99.90
9564;DHT22;4820;50.870;4.702;2024-01-10T07:50:13;-3.80;99.90
9564;DHT22;4820;50.870;4.702;2024-01-10T07:52:40;-3.80;99.90
9564;DHT22;4820;50.870;4.702;2024-01-10T07:55:06;-3.80;99.90
9564;DHT22;4820;50.870;4.702;2024-01-10T07:57:34;-3.80;99.90
9564;DHT22;4820;50.870;4.702;2024-01-10T07:59:59;-3.80;99.90
9564;DHT22;4820;50.870;4.702;2024-01-10T08:02:25;-3.90;99.90
9564;DHT22;4820;50.870;4.702;2024-01-10T08:04:52;-3.90;99.90
9564;DHT22;4820;50.870;4.702;2024-01-10T08:07:17;-3.90;99.90
9564;DHT22;4820;50.870;4.702;2024-01-10T08:09:43;-3.90;99.90
9564;DHT22;4820;50.870;4.702;2024-01-10T08:12:09;-3.90;99.90
9564;DHT22;4820;50.870;4.702;2024-01-10T08:14:34;-3.90;99.90
9564;DHT22;4820;50.870;4.702;2024-01-10T08:17:00;-3.90;99.90
9564;DHT22;4820;50.870;4.702;2024-01-10T08:19:26;-3.90;99.90
9564;DHT22;4820;50.870;4.702;2024-01-10T08:21:53;-3.90;99.90
9564;DHT22;4820;50.870;4.702;2024-01-10T08:24:21;-3.80;99.90
9564;DHT22;4820;50.870;4.702;2024-01-10T08:26:48;-3.80;99.90
9564;DHT22;4820;50.870;4.702;2024-01-10T08:29:21;-3.80;99.90
9564;DHT22;4820;50.870;4.702;2024-01-10T08:31:47;-3.80;99.90
9564;DHT22;4820;50.870;4.702;2024-01-10T08:34:13;-3.80;99.90
9564;DHT22;4820;50.870;4.702;2024-01-10T08:36:39;-3.80;99.90
9564;DHT22;4820;50.870;4.702;2024-01-10T08:39:05;-3.80;99.90
9564;DHT22;4820;50.870;4.702;2024-01-10T08:41:32;-3.80;99.90
9564;DHT22;4820;50.870;4.702;2024-01-10T08:43:58;-3.70;99.90
9564;DHT22;4820;50.870;4.702;2024-01-10T08:46:24;-3.70;99.90
9564;DHT22;4820;50.870;4.702;2024-01-10T08:48:52;-3.70;99.90
9564;DHT22;4820;50.870;4.702;2024-01-10T08:51:18;-3.70;99.90
9564;DHT22;4820;50.870;4.702;2024-01-10T08:53:44;-3.70;99.90
9564;DHT22;4820;50.870;4.702;2024-01-10T08:56:10;-3.70;99.90
9564;DHT22;4820;50.870;4.702;2024-01-10T08:58:36;-3.60;99.90
9564;DHT22;4820;50.870;4.702;2024-01-10T09:01:04;-3.60;99.90
9564;DHT22;4820;50.870;4.702;2024-01-10T09:03:30;-3.60;99.90
9564;DHT22;4820;50.870;4.702;2024-01-10T09:05:55;-3.50;99.90
9564;DHT22;4820;50.870;4.702;2024-01-10T09:08:22;-3.50;99.90
9564;DHT22;4820;50.870;4.702;2024-01-10T09:10:47;-3.40;99.90
9564;DHT22;4820;50.870;4.702;2024-01-10T09:13:15;-3.40;99.90
9564;DHT22;4820;50.870;4.702;2024-01-10T09:15:41;-3.30;99.90
9564;DHT22;4820;50.870;4.702;2024-01-10T09:18:07;-3.30;99.90
9564;DHT22;4820;50.870;4.702;2024-01-10T09:20:32;-3.20;99.90
9564;DHT22;4820;50.870;4.702;2024-01-10T09:22:58;-3.20;99.90
9564;DHT22;4820;50.870;4.702;2024-01-10T09:25:25;-3.10;99.90
9564;DHT22;4820;50.870;4.702;2024-01-10T09:27:51;-3.10;99.90
9564;DHT22;4820;50.870;4.702;2024-01-10T09:30:17;-3.10;99.90
9564;DHT22;4820;50.870;4.702;2024-01-10T09:32:43;-3.10;99.90
9564;DHT22;4820;50.870;4.702;2024-01-10T09:35:10;-3.10;99.90
9564;DHT22;4820;50.870;4.702;2024-01-10T09:37:36;-3.10;99.90
9564;DHT22;4820;50.870;4.702;2024-01-10T09:40:02;-3.00;99.90
9564;DHT22;4820;50.870;4.702;2024-01-10T09:42:29;-3.00;99.90
9564;DHT22;4820;50.870;4.702;2024-01-10T09:44:57;-3.00;99.90
9564;DHT22;4820;50.870;4.702;2024-01-10T09:47:24;-2.90;99.90
9564;DHT22;4820;50.870;4.702;2024-01-10T09:49:51;-2.90;99.90
9564;DHT22;4820;50.870;4.702;2024-01-10T09:52:24;-2.90;99.90
9564;DHT22;4820;50.870;4.702;2024-01-10T09:54:54;-2.80;99.90
9564;DHT22;4820;50.870;4.702;2024-01-10T09:57:25;-2.80;99.90
9564;DHT22;4820;50.870;4.702;2024-01-10T09:59:51;-2.70;99.90
9564;DHT22;4820;50.870;4.702;2024-01-10T10:02:18;-2.60;99.90
9564;DHT22;4820;50.870;4.702;2024-01-10T10:05:07;-2.60;99.90
9564;DHT22;4820;50.870;4.702;2024-01-10T10:08:03;-2.50;99.90
9564;DHT22;4820;50.870;4.702;2024-01-10T10:10:28;-2.50;99.90
9564;DHT22;4820;50.870;4.702;2024-01-10T10:12:54;-2.40;99.90
9564;DHT22;4820;50.870;4.702;2024-01-10T10:15:21;-2.40;99.90
9564;DHT22;4820;50.870;4.702;2024-01-10T10:17:51;-2.30;99.90
9564;DHT22;4820;50.870;4.702;2024-01-10T10:20:23;-2.20;99.90
9564;DHT22;4820;50.870;4.702;2024-01-10T10:23:06;-2.20;99.90
9564;DHT22;4820;50.870;4.702;2024-01-10T10:27:59;-2.10;99.90
9564;DHT22;4820;50.870;4.702;2024-01-10T10:30:25;-2.10;99.90
9564;DHT22;4820;50.870;4.702;2024-01-10T10:32:51;-2.00;99.90
9564;DHT22;4820;50.870;4.702;2024-01-10T10:35:20;-1.90;99.90
9564;DHT22;4820;50.870;4.702;2024-01-10T10:37:48;-1.80;99.90
9564;DHT22;4820;50.870;4.702;2024-01-10T10:40:14;-1.80;99.90
9564;DHT22;4820;50.870;4.702;2024-01-10T10:42:44;-1.70;99.90
9564;DHT22;4820;50.870;4.702;2024-01-10T10:45:14;-1.60;99.90
9564;DHT22;4820;50.870;4.702;2024-01-10T10:47:42;-1.60;99.90
9564;DHT22;4820;50.870;4.702;2024-01-10T10:50:22;-1.60;99.90
9564;DHT22;4820;50.870;4.702;2024-01-10T10:52:48;-1.60;99.90
9564;DHT22;4820;50.870;4.702;2024-01-10T10:55:20;-1.50;99.90
9564;DHT22;4820;50.870;4.702;2024-01-10T10:57:50;-1.50;99.90
9564;DHT22;4820;50.870;4.702;2024-01-10T11:00:21;-1.40;99.90
9564;DHT22;4820;50.870;4.702;2024-01-10T11:02:53;-1.40;99.90
9564;DHT22;4820;50.870;4.702;2024-01-10T11:05:20;-1.40;99.90
9564;DHT22;4820;50.870;4.702;2024-01-10T11:07:47;-1.40;99.90
9564;DHT22;4820;50.870;4.702;2024-01-10T11:10:25;-1.40;99.90
9564;DHT22;4820;50.870;4.702;2024-01-10T11:18:42;-1.30;99.90
9564;DHT22;4820;50.870;4.702;2024-01-10T11:21:21;-1.20;99.90
9564;DHT22;4820;50.870;4.702;2024-01-10T11:24:01;-1.20;99.90
9564;DHT22;4820;50.870;4.702;2024-01-10T11:26:28;-1.10;99.90
9564;DHT22;4820;50.870;4.702;2024-01-10T11:28:56;-1.10;99.90
9564;DHT22;4820;50.870;4.702;2024-01-10T11:31:31;-1.10;99.90
9564;DHT22;4820;50.870;4.702;2024-01-10T11:33:58;-1.10;99.90
9564;DHT22;4820;50.870;4.702;2024-01-10T11:36:24;-1.00;99.90
9564;DHT22;4820;50.870;4.702;2024-01-10T11:41:30;-1.00;99.90
9564;DHT22;4820;50.870;4.702;2024-01-10T11:46:41;-0.90;99.90
9564;DHT22;4820;50.870;4.702;2024-01-10T11:49:08;-0.90;99.90
9564;DHT22;4820;50.870;4.702;2024-01-10T11:51:35;-0.90;99.90
9564;DHT22;4820;50.870;4.702;2024-01-10T11:54:02;-0.90;99.90
9564;DHT22;4820;50.870;4.702;2024-01-10T11:56:38;-0.70;99.90
9564;DHT22;4820;50.870;4.702;2024-01-10T12:01:39;-0.70;99.90
9564;DHT22;4820;50.870;4.702;2024-01-10T12:04:05;-0.70;99.90
9564;DHT22;4820;50.870;4.702;2024-01-10T12:06:32;-0.70;99.90
9564;DHT22;4820;50.870;4.702;2024-01-10T12:08:58;-0.70;99.90
9564;DHT22;4820;50.870;4.702;2024-01-10T12:11:25;-0.70;99.90
9564;DHT22;4820;50.870;4.702;2024-01-10T12:13:50;-0.70;99.90
9564;DHT22;4820;50.870;4.702;2024-01-10T12:16:16;-0.70;99.90
9564;DHT22;4820;50.870;4.702;2024-01-10T12:18:43;-0.70;99.90
9564;DHT22;4820;50.870;4.702;2024-01-10T12:21:09;-0.70;99.90
9564;DHT22;4820;50.870;4.702;2024-01-10T12:23:38;-0.70;99.90
9564;DHT22;4820;50.870;4.702;2024-01-10T12:26:09;-0.70;99.90
9564;DHT22;4820;50.870;4.702;2024-01-10T12:28:38;-0.70;99.90
9564;DHT22;4820;50.870;4.702;2024-01-10T12:31:05;-0.60;99.90
9564;DHT22;4820;50.870;4.702;2024-01-10T12:33:33;-0.60;99.90
9564;DHT22;4820;50.870;4.702;2024-01-10T12:36:10;-0.60;99.90
9564;DHT22;4820;50.870;4.702;2024-01-10T12:38:39;-0.60;99.90
9564;DHT22;4820;50.870;4.702;2024-01-10T12:41:05;-0.60;99.90
9564;DHT22;4820;50.870;4.702;2024-01-10T12:43:31;-0.50;99.90
9564;DHT22;4820;50.870;4.702;2024-01-10T12:46:06;-0.60;99.90
9564;DHT22;4820;50.870;4.702;2024-01-10T12:48:33;-0.60;99.90
9564;DHT22;4820;50.870;4.702;2024-01-10T12:51:02;-0.50;99.90
9564;DHT22;4820;50.870;4.702;2024-01-10T12:53:35;-0.50;99.90
9564;DHT22;4820;50.870;4.702;2024-01-10T12:56:02;-0.40;99.90
9564;DHT22;4820;50.870;4.702;2024-01-10T12:58:28;-0.40;99.90
9564;DHT22;4820;50.870;4.702;2024-01-10T13:00:54;-0.40;99.90
9564;DHT22;4820;50.870;4.702;2024-01-10T13:03:21;-0.30;99.90
9564;DHT22;4820;50.870;4.702;2024-01-10T13:05:47;-0.30;99.90
9564;DHT22;4820;50.870;4.702;2024-01-10T13:08:12;-0.20;99.90
9564;DHT22;4820;50.870;4.702;2024-01-10T13:10:39;-0.10;99.90
9564;DHT22;4820;50.870;4.702;2024-01-10T13:13:05;-0.10;99.90
9564;DHT22;4820;50.870;4.702;2024-01-10T13:15:31;-0.10;99.90
9564;DHT22;4820;50.870;4.702;2024-01-10T13:17:56;0.00;99.90
9564;DHT22;4820;50.870;4.702;2024-01-10T13:20:23;0.00;99.90
9564;DHT22;4820;50.870;4.702;2024-01-10T13:22:50;0.00;99.90
9564;DHT22;4820;50.870;4.702;2024-01-10T13:25:17;0.10;99.90
9564;DHT22;4820;50.870;4.702;2024-01-10T13:27:42;0.10;99.90
9564;DHT22;4820;50.870;4.702;2024-01-10T13:30:08;0.10;99.90
9564;DHT22;4820;50.870;4.702;2024-01-10T13:32:37;0.10;99.90
9564;DHT22;4820;50.870;4.702;2024-01-10T13:35:04;0.10;99.90
9564;DHT22;4820;50.870;4.702;2024-01-10T13:37:29;0.10;99.90
9564;DHT22;4820;50.870;4.702;2024-01-10T13:39:57;0.20;99.90
9564;DHT22;4820;50.870;4.702;2024-01-10T13:42:22;0.20;99.90
9564;DHT22;4820;50.870;4.702;2024-01-10T13:44:49;0.20;99.90
9564;DHT22;4820;50.870;4.702;2024-01-10T13:47:17;0.20;99.90
9564;DHT22;4820;50.870;4.702;2024-01-10T13:49:43;0.30;99.90
9564;DHT22;4820;50.870;4.702;2024-01-10T13:52:09;0.40;99.90
9564;DHT22;4820;50.870;4.702;2024-01-10T13:54:34;0.40;99.90
9564;DHT22;4820;50.870;4.702;2024-01-10T13:57:02;0.50;99.90
9564;DHT22;4820;50.870;4.702;2024-01-10T13:59:28;0.50;99.90
9564;DHT22;4820;50.870;4.702;2024-01-10T14:01:54;0.50;99.90
9564;DHT22;4820;50.870;4.702;2024-01-10T14:04:20;0.50;99.90
9564;DHT22;4820;50.870;4.702;2024-01-10T14:06:48;0.50;99.90
9564;DHT22;4820;50.870;4.702;2024-01-10T14:09:14;0.50;99.90
9564;DHT22;4820;50.870;4.702;2024-01-10T14:11:39;0.50;99.90
9564;DHT22;4820;50.870;4.702;2024-01-10T14:14:05;0.50;99.90
9564;DHT22;4820;50.870;4.702;2024-01-10T14:16:31;0.50;99.90
9564;DHT22;4820;50.870;4.702;2024-01-10T14:18:56;0.50;99.90
9564;DHT22;4820;50.870;4.702;2024-01-10T14:21:22;0.50;99.90
9564;DHT22;4820;50.870;4.702;2024-01-10T14:23:48;0.40;99.90
9564;DHT22;4820;50.870;4.702;2024-01-10T14:26:14;0.40;99.90
9564;DHT22;4820;50.870;4.702;2024-01-10T14:28:40;0.40;99.90
9564;DHT22;4820;50.870;4.702;2024-01-10T14:31:06;0.40;99.90
9564;DHT22;4820;50.870;4.702;2024-01-10T14:33:32;0.40;99.90
9564;DHT22;4820;50.870;4.702;2024-01-10T14:36:01;0.40;99.90
9564;DHT22;4820;50.870;4.702;2024-01-10T14:38:26;0.40;99.90
9564;DHT22;4820;50.870;4.702;2024-01-10T14:40:52;0.40;99.90
9564;DHT22;4820;50.870;4.702;2024-01-10T14:43:18;0.30;99.90
9564;DHT22;4820;50.870;4.702;2024-01-10T14:45:44;0.30;99.90
9564;DHT22;4820;50.870;4.702;2024-01-10T14:48:09;0.30;99.90
9564;DHT22;4820;50.870;4.702;2024-01-10T14:50:35;0.20;99.90
9564;DHT22;4820;50.870;4.702;2024-01-10T14:53:01;0.20;99.90
9564;DHT22;4820;50.870;4.702;2024-01-10T14:55:27;0.10;99.90
9564;DHT22;4820;50.870;4.702;2024-01-10T14:57:54;0.10;99.90
9564;DHT22;4820;50.870;4.702;2024-01-10T15:00:20;0.10;99.90
9564;DHT22;4820;50.870;4.702;2024-01-10T15:02:46;0.00;99.90
9564;DHT22;4820;50.870;4.702;2024-01-10T15:05:12;0.00;99.90
9564;DHT22;4820;50.870;4.702;2024-01-10T15:07:38;-0.10;99.90
9564;DHT22;4820;50.870;4.702;2024-01-10T15:10:04;-0.10;99.90
9564;DHT22;4820;50.870;4.702;2024-01-10T15:12:30;-0.10;99.90
9564;DHT22;4820;50.870;4.702;2024-01-10T15:14:56;-0.10;99.90
9564;DHT22;4820;50.870;4.702;2024-01-10T15:17:28;-0.10;99.90
9564;DHT22;4820;50.870;4.702;2024-01-10T15:19:54;-0.20;99.90
9564;DHT22;4820;50.870;4.702;2024-01-10T15:22:19;-0.20;99.90
9564;DHT22;4820;50.870;4.702;2024-01-10T15:24:45;-0.20;99.90
9564;DHT22;4820;50.870;4.702;2024-01-10T15:27:11;-0.30;99.90
9564;DHT22;4820;50.870;4.702;2024-01-10T15:29:39;-0.30;99.90
9564;DHT22;4820;50.870;4.702;2024-01-10T15:32:06;-0.30;99.90
9564;DHT22;4820;50.870;4.702;2024-01-10T15:34:32;-0.30;99.90
9564;DHT22;4820;50.870;4.702;2024-01-10T15:36:59;-0.30;99.90
9564;DHT22;4820;50.870;4.702;2024-01-10T15:39:24;-0.40;99.90
9564;DHT22;4820;50.870;4.702;2024-01-10T15:41:51;-0.40;99.90
9564;DHT22;4820;50.870;4.702;2024-01-10T15:44:20;-0.40;99.90
9564;DHT22;4820;50.870;4.702;2024-01-10T15:46:45;-0.40;99.90
9564;DHT22;4820;50.870;4.702;2024-01-10T15:49:12;-0.40;99.90
9564;DHT22;4820;50.870;4.702;2024-01-10T15:51:38;-0.40;99.90
9564;DHT22;4820;50.870;4.702;2024-01-10T15:54:03;-0.30;99.90
9564;DHT22;4820;50.870;4.702;2024-01-10T15:56:29;-0.20;99.90
9564;DHT22;4820;50.870;4.702;2024-01-10T15:58:57;-0.20;99.90
9564;DHT22;4820;50.870;4.702;2024-01-10T16:01:22;-0.10;99.90
9564;DHT22;4820;50.870;4.702;2024-01-10T16:03:49;0.00;99.90
9564;DHT22;4820;50.870;4.702;2024-01-10T16:06:15;0.10;99.90
9564;DHT22;4820;50.870;4.702;2024-01-10T16:08:43;0.10;99.90
9564;DHT22;4820;50.870;4.702;2024-01-10T16:11:09;0.10;99.90
9564;DHT22;4820;50.870;4.702;2024-01-10T16:13:35;0.20;99.90
9564;DHT22;4820;50.870;4.702;2024-01-10T16:16:01;0.10;99.90
9564;DHT22;4820;50.870;4.702;2024-01-10T16:18:30;0.10;99.90